Flight Track Log - Related Links

Times and Time Zones

All times are in EDT time to prevent confusion due to time zone crossing. See the AAY846 flight status page for this flight to view local times or setup timezone preferences in your user account.

Time Position Orientation Groundspeed Altitude Reporting Facility
EDT Latitude Longitude Course Direction KTS MPH feet Rate Location/Type
Mon 09:01:22 AM 27.9000 -82.6833 180° South 155 178 900  Level Tampa TRACON
Mon 09:02:22 AM 27.8500 -82.6833 180° South 183 211 2,900 1,959 Climbing Tampa TRACON
Mon 09:04:38 AM 27.9100 -82.7375 321° Northwest 125 144 7,300 2,173 Climbing Jacksonville Center
Mon 09:05:38 AM 27.9953 -82.7208 10° North 219 252 10,000 2,100 Climbing Jacksonville Center
Mon 09:06:38 AM 28.0892 -82.7092 North 265 305 11,500 1,350 Climbing Jacksonville Center
Mon 09:07:38 AM 28.2000 -82.6972 North 344 396 12,700 1,850 Climbing Jacksonville Center
Mon 09:08:38 AM 28.3208 -82.6781 North 396 456 15,200 2,350 Climbing Jacksonville Center
Mon 09:09:38 AM 28.4378 -82.6564 North 424 488 17,400 2,150 Climbing Jacksonville Center
Mon 09:10:38 AM 28.5608 -82.6372 North 436 502 19,500 1,850 Climbing Jacksonville Center
Mon 09:11:38 AM 28.6858 -82.6061 12° North 443 510 21,100 1,500 Climbing Jacksonville Center
Mon 09:12:38 AM 28.8133 -82.5939 North 450 518 22,500 1,450 Climbing Jacksonville Center
Mon 09:13:38 AM 28.9467 -82.5936 360° North 462 532 24,000 1,400 Climbing Jacksonville Center
Mon 09:14:38 AM 29.0803 -82.5883 North 467 537 25,300 1,250 Climbing Jacksonville Center
Mon 09:15:38 AM 29.2161 -82.5856 North 479 551 26,500 1,600 Climbing Jacksonville Center
Mon 09:16:38 AM 29.3517 -82.5828 North 479 551 28,500 1,950 Climbing Jacksonville Center
Mon 09:17:38 AM 29.4833 -82.5800 North 474 545 30,400 1,700 Climbing Jacksonville Center
Mon 09:18:38 AM 29.6064 -82.5725 North 463 533 31,900 1,300 Climbing Jacksonville Center
Mon 09:19:38 AM 29.7419 -82.5697 North 451 519 33,000 550 Climbing Jacksonville Center
Mon 09:20:38 AM 29.8653 -82.5669 North 441 507 33,000 -50 Level Jacksonville Center
Mon 09:21:38 AM 29.9883 -82.5642 North 441 507 32,900  Descending Jacksonville Center
Mon 09:22:38 AM 30.0992 -82.5683 358° North 436 502 33,000 50 Climbing Jacksonville Center
Mon 09:23:38 AM 30.2203 -82.5633 North 436 502 33,000  Level Jacksonville Center
Mon 09:24:38 AM 30.3475 -82.5581 North 441 507 33,000 -50 Level Jacksonville Center
Mon 09:25:38 AM 30.4706 -82.5550 North 441 507 32,900  Descending Jacksonville Center
Mon 09:26:38 AM 30.5958 -82.5500 North 441 507 33,000 50 Climbing Jacksonville Center
Mon 09:27:38 AM 30.7233 -82.5469 North 441 507 33,000  Level Jacksonville Center
Mon 09:28:38 AM 30.8486 -82.5417 North 441 507 33,000  Level Jacksonville Center
Mon 09:29:38 AM 30.9864 -82.5339 North 441 507 33,000 -50 Level Jacksonville Center
Mon 09:30:38 AM 31.1094 -82.5311 North 441 507 32,900  Descending Jacksonville Center
Mon 09:31:38 AM 31.2389 -82.5256 North 446 513 33,000 50 Climbing Jacksonville Center
Mon 09:32:38 AM 31.3414 -82.5203 North 451 519 33,000  Level Jacksonville Center
Mon 09:33:38 AM 31.4811 -82.5125 North 451 519 33,000  Level Jacksonville Center
Mon 09:34:38 AM 31.6022 -82.5267 354° North 451 519 33,000  Level Jacksonville Center
Mon 09:35:38 AM 31.7214 -82.5628 346° North 441 507 33,000  Level Jacksonville Center
Mon 09:36:53 AM 31.8656 -82.6083 345° North 439 505 33,000  Level Atlanta Center
Mon 09:37:53 AM 31.9828 -82.6456 345° North 439 505 33,000  Level Atlanta Center
Mon 09:38:53 AM 32.1022 -82.6806 346° North 439 505 33,000  Level Atlanta Center
Mon 09:39:53 AM 32.2194 -82.7181 345° North 439 505 33,000  Level Atlanta Center
Mon 09:40:53 AM 32.3411 -82.7556 345° North 439 505 33,000  Level Atlanta Center
Mon 09:41:53 AM 32.4583 -82.7883 347° North 439 505 33,000  Level Atlanta Center
Mon 09:42:53 AM 32.5861 -82.8333 343° North 439 505 33,000  Level Atlanta Center
Mon 09:43:53 AM 32.7053 -82.8686 346° North 439 505 33,000  Level Atlanta Center
Mon 09:44:53 AM 32.8225 -82.9017 347° North 439 505 33,000  Level Atlanta Center
Mon 09:45:53 AM 32.9439 -82.9422 344° North 439 505 33,000  Level Atlanta Center
Mon 09:46:53 AM 33.0381 -82.9683 347° North 439 505 33,000 -350 Level Atlanta Center
Mon 09:47:53 AM 33.1722 -83.0164 343° North 439 505 32,300 -500 Descending Atlanta Center
Mon 09:48:53 AM 33.3081 -83.0569 346° North 446 513 32,000 -150 Descending Atlanta Center
Mon 09:49:53 AM 33.4336 -83.0953 346° North 451 519 32,000  Level Atlanta Center
Mon 09:50:53 AM 33.5572 -83.1339 345° North 460 529 32,000  Level Atlanta Center
Mon 09:51:53 AM 33.6828 -83.1750 345° North 460 529 32,000  Level Atlanta Center
Mon 09:52:53 AM 33.8103 -83.2136 346° North 460 529 32,000  Level Atlanta Center
Mon 09:53:53 AM 33.9358 -83.2550 345° North 460 529 32,000  Level Atlanta Center
Mon 09:54:53 AM 34.0633 -83.2942 346° North 474 545 32,000  Level Atlanta Center
Mon 09:55:53 AM 34.1908 -83.3331 346° North 468 539 32,000  Level Atlanta Center
Mon 09:56:53 AM 34.3206 -83.3747 345° North 473 544 32,000  Level Atlanta Center
Mon 09:57:53 AM 34.4458 -83.4142 345° North 468 539 32,000  Level Atlanta Center
Mon 09:58:53 AM 34.5756 -83.4561 345° North 476 548 32,000  Level Atlanta Center
Mon 09:59:53 AM 34.7008 -83.5006 344° North 473 544 32,000  Level Atlanta Center
Mon 10:00:53 AM 34.8306 -83.5478 343° North 473 544 32,000  Level Atlanta Center
Mon 10:01:53 AM 34.9497 -83.5825 347° North 478 550 32,000  Level Atlanta Center
Mon 10:02:53 AM 35.0833 -83.6225 346° North 478 550 32,000  Level Atlanta Center
Mon 10:03:53 AM 35.2150 -83.6650 345° North 478 550 32,000  Level Atlanta Center
Mon 10:04:53 AM 35.3464 -83.7103 344° North 478 550 32,000  Level Atlanta Center
Mon 10:05:53 AM 35.4781 -83.7556 344° North 478 550 32,000  Level Atlanta Center
Mon 10:06:53 AM 35.6117 -83.7986 345° North 483 556 32,000  Level Atlanta Center
Mon 10:07:53 AM 35.7472 -83.8442 345° North 490 564 32,000  Level Atlanta Center
Mon 10:08:53 AM 35.8831 -83.8900 345° North 495 570 32,000  Level Atlanta Center
Mon 10:09:53 AM 35.9997 -83.9669 332° Northwest 489 563 32,000  Level Atlanta Center
Mon 10:10:53 AM 36.1147 -84.0492 330° Northwest 477 549 32,000  Level Atlanta Center
Mon 10:11:53 AM 36.2208 -84.1286 329° Northwest 482 555 32,000  Level Indianapolis Center
Mon 10:12:55 AM 36.3592 -84.2328 329° Northwest 482 555 32,000  Level Indianapolis Center
Mon 10:13:57 AM 36.4736 -84.3186 329° Northwest 483 556 32,000  Level Indianapolis Center
Mon 10:14:59 AM 36.5867 -84.4050 328° Northwest 483 556 32,000  Level Indianapolis Center
Mon 10:16:01 AM 36.7047 -84.4939 329° Northwest 486 559 32,000  Level Indianapolis Center
Mon 10:17:03 AM 36.8231 -84.5828 329° Northwest 490 564 32,000  Level Indianapolis Center
Mon 10:18:05 AM 36.9611 -84.6883 329° Northwest 490 564 32,000  Level Indianapolis Center
Mon 10:19:08 AM 37.0717 -84.7725 329° Northwest 482 555 32,000  Level Indianapolis Center
Mon 10:20:10 AM 37.1858 -84.8614 328° Northwest 482 555 32,000  Level Indianapolis Center
Mon 10:21:12 AM 37.3000 -84.9481 329° Northwest 481 554 32,000  Level Indianapolis Center
Mon 10:22:14 AM 37.4136 -85.0364 328° Northwest 480 552 32,000  Level Indianapolis Center
Mon 10:23:16 AM 37.5450 -85.1394 328° Northwest 479 551 32,000  Level Indianapolis Center
Mon 10:24:20 AM 37.6603 -85.2267 329° Northwest 479 551 32,000  Level Indianapolis Center
Mon 10:25:20 AM 37.7725 -85.3139 328° Northwest 478 550 32,000  Level Indianapolis Center
Mon 10:26:22 AM 37.8617 -85.4303 314° West 432 497 32,000  Level Indianapolis Center
Mon 10:27:24 AM 37.9186 -85.5531 300° West 408 470 32,000  Level Indianapolis Center
Mon 10:28:25 AM 37.9789 -85.6711 303° West 401 461 32,000  Level Indianapolis Center
Mon 10:29:27 AM 38.0381 -85.7908 302° West 399 459 32,000  Level Indianapolis Center
Mon 10:30:29 AM 38.0967 -85.9119 302° West 400 460 32,000  Level Indianapolis Center
Mon 10:31:31 AM 38.1567 -86.0358 302° West 406 467 32,000  Level Indianapolis Center
Mon 10:32:33 AM 38.2178 -86.1592 302° West 410 472 32,000  Level Indianapolis Center
Mon 10:33:35 AM 38.2778 -86.2831 302° West 410 472 32,000  Level Indianapolis Center
Mon 10:34:37 AM 38.3519 -86.4364 302° West 418 481 32,000  Level Indianapolis Center
Mon 10:35:39 AM 38.4125 -86.5628 301° West 420 483 32,000  Level Indianapolis Center
Mon 10:36:40 AM 38.4739 -86.6900 302° West 420 483 32,000  Level Indianapolis Center
Mon 10:37:42 AM 38.5356 -86.8194 301° West 426 490 32,000 -290 Level Indianapolis Center
Mon 10:38:44 AM 38.5964 -86.9472 301° West 426 490 31,400 -774 Descending Indianapolis Center
Mon 10:39:46 AM 38.6578 -87.0783 301° West 428 493 30,400 -677 Descending Indianapolis Center
Mon 10:40:48 AM 38.7336 -87.2375 301° West 431 496 30,000 -194 Descending Indianapolis Center
Mon 10:41:50 AM 38.7978 -87.3736 301° West 438 504 30,000  Level Indianapolis Center
Mon 10:42:51 AM 38.8625 -87.5119 301° West 446 513 30,000  Level Indianapolis Center
Mon 10:43:53 AM 38.9283 -87.6511 301° West 450 518 30,000  Level Indianapolis Center
Mon 10:44:55 AM 38.9914 -87.7875 301° West 450 518 30,000  Level Indianapolis Center
Mon 10:45:57 AM 39.0536 -87.9228 301° West 444 511 30,000  Level Indianapolis Center
Mon 10:46:59 AM 39.1156 -88.0578 301° West 442 509 30,000  Level Indianapolis Center
Mon 10:48:01 AM 39.1900 -88.2200 301° West 440 506 30,000 -290 Level Indianapolis Center
Mon 10:49:03 AM 39.2508 -88.3569 300° West 440 506 29,400 -724 Descending Indianapolis Center
Mon 10:49:57 AM 39.3000 -88.4689 300° West 439 505 28,600 -974 Descending Kansas City Center
Mon 10:51:00 AM 39.3786 -88.6050 307° West 449 517 27,500 -912 Descending Kansas City Center
Mon 10:52:02 AM 39.4844 -88.6961 326° Northwest 488 562 26,700 -1,024 Descending Kansas City Center
Mon 10:53:03 AM 39.6181 -88.8050 328° Northwest 476 548 25,400 -1,602 Descending Kansas City Center
Mon 10:54:43 AM 39.7800 -88.9422 327° Northwest 437 503 22,400 -2,056 Descending Chicago Center
Mon 10:55:26 AM 39.8597 -89.0058 329° Northwest 437 503 20,500 -2,372 Descending Indianapolis Center
Mon 10:56:09 AM 39.9217 -89.0578 327° Northwest 432 497 19,000 -2,135 Descending Kansas City Center
Mon 10:57:10 AM 40.0186 -89.1422 326° Northwest 425 489 16,800 -2,112 Descending Kansas City Center
Mon 10:58:14 AM 40.1131 -89.2211 327° Northwest 410 472 14,600 -2,000 Descending Kansas City Center
Mon 10:58:49 AM 40.1678 -89.2664 328° Northwest 403 464 13,500 -2,041 Descending Chicago Center
Mon 10:59:51 AM 40.2708 -89.3556 327° Northwest 378 435 11,300 -1,707 Descending Chicago Center
Mon 11:00:52 AM 40.3544 -89.4078 335° Northwest 342 394 10,000 -1,317 Descending Chicago Center
Mon 11:01:54 AM 40.4242 -89.4539 333° Northwest 291 335 8,600 -1,887 Descending Chicago Center
Mon 11:02:56 AM 40.4889 -89.5006 331° Northwest 270 311 6,100 -2,439 Descending Chicago Center
Mon 11:03:57 AM 40.5531 -89.5503 330° Northwest 270 311 3,600 -1,659 Descending Chicago Center
Mon 11:04:59 AM 40.6067 -89.5958 327° Northwest 248 285 2,700 -1,073 Descending Chicago Center
Mon 11:06:00 AM 40.6347 -89.6450 307° West 195 224 1,400 -1,024 Descending Chicago Center
Mon 11:07:02 AM 40.6619 -89.6925 307° West 156 180 600 -774 Descending Chicago Center
Mon 11:09:00 AM 40.6642 -89.6933 143° Southeast  Level Estimated

Login

Don't have an account? Register now (free) for customized features, flight alerts, and more!